Archival Weather

Sharurah

Sharurah, Saudi Arabia (OESH)

Report from: Tuesday, September 19, 2023 6:00 PM +03
Current time: Sunday, July 14, 2024 3:36 AM +03

Current weather – Weather history – Daily summaries
Weather forecast

Temperature38.0°C (100.4°F)
Heat index35.6°C (96.1°F)
Dew point6.0°C (42.8°F)
Winds 9 kts (4.6 m/s, 10.4 mph) Northeast (40°)
Visibility6.2 mi. (10 km)
Clouds Few clouds 4,000 ft. (1,219 m)
Altimeter29.74 in.Hg (1007 mB)
Relative humidity14 %
Density altitude2,942 ft. (897 m)
Remarks No significant changes expected in the next two hours
Flight conditions Visual Meteorological Conditions
Raw dataOESH 191500Z 04009KT 9999 FEW040 38/06 Q1007 NOSIG
An error has occurred. This application may no longer respond until reloaded. Reload 🗙